createdAt,value
2019-03-17T00:01:04.902Z,2.57
2019-03-17T00:03:36.666Z,2.70
2019-03-17T00:06:08.507Z,2.60
2019-03-17T00:08:40.194Z,2.37
2019-03-17T00:11:11.972Z,2.53
2019-03-17T00:13:44.005Z,2.27
2019-03-17T00:16:15.693Z,2.50
2019-03-17T00:18:47.795Z,2.13
2019-03-17T00:21:19.798Z,2.70
2019-03-17T00:23:52.137Z,2.50
2019-03-17T00:26:24.142Z,2.50
2019-03-17T00:28:55.811Z,2.70
2019-03-17T00:31:27.577Z,3.00
2019-03-17T00:33:59.291Z,3.10
2019-03-17T00:36:31.342Z,2.83
2019-03-17T00:39:03.823Z,2.43
2019-03-17T00:41:36.834Z,2.00
2019-03-17T00:44:09.186Z,2.40
2019-03-17T00:46:40.895Z,1.87
2019-03-17T00:49:12.576Z,2.10
2019-03-17T00:51:44.275Z,1.80
2019-03-17T00:54:16.029Z,2.03
2019-03-17T00:56:47.701Z,1.57
2019-03-17T00:59:19.371Z,1.72
2019-03-17T01:01:51.166Z,1.73
2019-03-17T01:04:22.850Z,1.83
2019-03-17T01:06:54.539Z,1.90
2019-03-17T01:09:26.520Z,1.70
2019-03-17T01:11:58.221Z,1.80
2019-03-17T01:14:29.981Z,1.57
2019-03-17T01:17:01.729Z,1.90
2019-03-17T01:19:33.427Z,1.50
2019-03-17T01:22:06.403Z,1.70
2019-03-17T01:24:38.438Z,2.00
2019-03-17T01:27:10.126Z,1.83
2019-03-17T01:29:42.131Z,1.80
2019-03-17T01:32:14.894Z,1.62
2019-03-17T01:34:46.600Z,1.60
2019-03-17T01:37:18.303Z,1.60
2019-03-17T01:39:49.978Z,1.63
2019-03-17T01:42:21.672Z,2.37
2019-03-17T01:44:53.717Z,1.60
2019-03-17T01:47:27.720Z,1.60
2019-03-17T01:49:58.774Z,1.80
2019-03-17T01:52:30.534Z,1.77
2019-03-17T01:55:02.308Z,1.90
2019-03-17T01:57:34.012Z,1.63
2019-03-17T02:00:09.102Z,1.37
2019-03-17T02:02:40.823Z,1.73
2019-03-17T02:05:21.894Z,1.53
2019-03-17T02:07:47.531Z,1.70
2019-03-17T02:10:19.216Z,1.70
2019-03-17T02:12:50.911Z,1.53
2019-03-17T02:15:22.642Z,1.82
2019-03-17T02:17:54.338Z,1.60
2019-03-17T02:20:26.075Z,1.70
2019-03-17T02:22:57.755Z,1.60
2019-03-17T02:25:29.432Z,1.60
2019-03-17T02:28:01.110Z,1.43
2019-03-17T02:30:32.782Z,1.80
2019-03-17T02:33:04.647Z,1.77
2019-03-17T02:35:39.671Z,1.70
2019-03-17T02:38:09.725Z,1.53
2019-03-17T02:40:42.591Z,1.60
2019-03-17T02:43:14.730Z,1.40
2019-03-17T02:45:46.424Z,1.57
2019-03-17T02:48:18.254Z,1.60
2019-03-17T02:50:49.912Z,1.37
2019-03-17T02:53:21.588Z,1.17
2019-03-17T02:55:53.256Z,1.20
2019-03-17T02:58:24.937Z,1.40
2019-03-17T03:00:56.625Z,1.10
2019-03-17T03:03:28.303Z,1.15
2019-03-17T03:05:59.978Z,1.30
2019-03-17T03:08:31.810Z,1.13
2019-03-17T03:11:03.487Z,1.50
2019-03-17T03:13:35.266Z,1.27
2019-03-17T03:16:07.024Z,1.40
2019-03-17T03:18:38.785Z,1.43
2019-03-17T03:21:12.001Z,1.37
2019-03-17T03:23:43.732Z,1.33
2019-03-17T03:26:15.394Z,1.40
2019-03-17T03:28:47.074Z,1.20
2019-03-17T03:31:19.100Z,1.10
2019-03-17T03:33:50.978Z,1.00
2019-03-17T03:36:22.877Z,1.00
2019-03-17T03:38:54.922Z,1.23
2019-03-17T03:41:26.658Z,1.20
2019-03-17T03:43:58.484Z,1.03
2019-03-17T03:46:30.407Z,1.07
2019-03-17T03:49:02.306Z,1.17
2019-03-17T03:51:34.046Z,1.10
2019-03-17T03:54:05.930Z,1.10
2019-03-17T03:56:37.749Z,1.10
2019-03-17T03:59:09.640Z,0.93
2019-03-17T04:01:41.528Z,1.10
2019-03-17T04:04:13.738Z,0.85
2019-03-17T04:06:45.855Z,0.97
2019-03-17T04:09:17.748Z,0.70
2019-03-17T04:11:49.608Z,1.20
2019-03-17T04:14:21.370Z,0.88
2019-03-17T04:16:53.814Z,1.00
2019-03-17T04:19:25.660Z,1.32
2019-03-17T04:21:57.469Z,0.93
2019-03-17T04:24:29.578Z,1.23
2019-03-17T04:27:01.774Z,1.20
2019-03-17T04:29:33.853Z,1.20
2019-03-17T04:32:05.720Z,1.00
2019-03-17T04:34:37.747Z,1.20
2019-03-17T04:37:09.967Z,1.20
2019-03-17T04:39:41.783Z,1.30
2019-03-17T04:42:13.885Z,1.03
2019-03-17T04:44:45.719Z,1.10
2019-03-17T04:47:17.448Z,1.30
2019-03-17T04:49:49.215Z,1.00
2019-03-17T04:52:20.949Z,1.20
2019-03-17T04:54:52.863Z,1.00
2019-03-17T04:57:24.696Z,1.23
2019-03-17T04:59:57.089Z,1.23
2019-03-17T05:02:29.227Z,1.17
2019-03-17T05:05:01.030Z,1.10
2019-03-17T05:07:32.848Z,1.50
2019-03-17T05:10:05.834Z,1.23
2019-03-17T05:12:37.566Z,1.43
2019-03-17T05:15:09.684Z,1.87
2019-03-17T05:17:41.493Z,1.50
2019-03-17T05:20:13.388Z,3.25
2019-03-17T05:22:45.186Z,3.00
2019-03-17T05:25:16.930Z,2.30
2019-03-17T05:27:48.737Z,3.13
2019-03-17T05:30:20.924Z,2.83
2019-03-17T05:32:53.107Z,2.10
2019-03-17T05:35:24.901Z,2.13
2019-03-17T05:37:56.852Z,1.90
2019-03-17T05:40:28.602Z,1.92
2019-03-17T05:43:00.666Z,1.57
2019-03-17T05:45:32.796Z,1.67
2019-03-17T05:48:04.613Z,1.87
2019-03-17T05:50:36.349Z,1.60
2019-03-17T05:53:08.234Z,1.67
2019-03-17T05:55:40.259Z,2.20
2019-03-17T05:58:12.004Z,1.77
2019-03-17T06:00:44.718Z,2.03
2019-03-17T06:03:16.547Z,1.80
2019-03-17T06:05:48.427Z,2.00
2019-03-17T06:08:20.194Z,1.70
2019-03-17T06:10:51.942Z,1.47
2019-03-17T06:13:23.727Z,1.50
2019-03-17T06:15:55.561Z,1.43
2019-03-17T06:18:27.732Z,1.70
2019-03-17T06:21:00.443Z,1.60
2019-03-17T06:23:33.272Z,2.07
2019-03-17T06:26:05.427Z,1.60
2019-03-17T06:28:37.548Z,1.30
2019-03-17T06:31:09.316Z,1.30
2019-03-17T06:33:41.178Z,1.27
2019-03-17T06:36:12.942Z,1.20
2019-03-17T06:38:45.842Z,1.37
2019-03-17T06:41:17.705Z,1.50
2019-03-17T06:43:50.624Z,1.37
2019-03-17T06:46:22.449Z,1.35
2019-03-17T06:48:54.521Z,1.50
2019-03-17T06:51:26.998Z,1.55
2019-03-17T06:53:58.819Z,1.60
2019-03-17T06:56:30.649Z,1.47
2019-03-17T06:59:02.556Z,1.43
2019-03-17T07:01:34.361Z,1.40
2019-03-17T07:04:06.251Z,7.10
2019-03-17T07:06:38.071Z,13.77
2019-03-17T07:09:11.258Z,11.43
2019-03-17T07:11:43.111Z,8.60
2019-03-17T07:14:15.035Z,6.60
2019-03-17T07:16:47.155Z,6.07
2019-03-17T07:19:18.894Z,4.50
2019-03-17T07:21:52.256Z,2.43
2019-03-17T07:24:24.074Z,1.80
2019-03-17T07:26:55.946Z,1.40
2019-03-17T07:29:28.055Z,1.45
2019-03-17T07:32:02.208Z,1.50
2019-03-17T07:34:34.216Z,1.50
2019-03-17T07:37:06.304Z,1.20
2019-03-17T07:39:38.475Z,1.30
2019-03-17T07:42:11.400Z,1.25
2019-03-17T07:44:43.254Z,1.47
2019-03-17T07:47:15.682Z,1.30
2019-03-17T07:49:48.058Z,1.80
2019-03-17T07:52:20.267Z,0.78
2019-03-17T07:54:52.027Z,1.30
2019-03-17T07:57:24.282Z,1.42
2019-03-17T07:59:56.246Z,1.43
2019-03-17T08:02:28.157Z,0.75
2019-03-17T08:04:59.999Z,1.10
2019-03-17T08:07:31.737Z,1.00
2019-03-17T08:10:03.665Z,1.27
2019-03-17T08:12:35.988Z,3.00
2019-03-17T08:15:08.906Z,1.60
2019-03-17T08:17:40.878Z,0.97
2019-03-17T08:20:14.248Z,1.00
2019-03-17T08:22:46.078Z,0.90
2019-03-17T08:25:18.495Z,0.93
2019-03-17T08:27:50.254Z,0.83
2019-03-17T08:30:22.068Z,1.20
2019-03-17T08:32:53.883Z,1.17
2019-03-17T08:35:25.804Z,0.90
2019-03-17T08:37:57.567Z,0.90
2019-03-17T08:40:29.397Z,0.90
2019-03-17T08:43:01.182Z,1.00
2019-03-17T08:45:32.931Z,1.00
2019-03-17T08:48:05.834Z,1.00
2019-03-17T08:50:37.586Z,0.90
2019-03-17T08:53:09.422Z,1.00
2019-03-17T08:55:41.550Z,0.63
2019-03-17T08:58:13.400Z,1.15
2019-03-17T09:00:45.288Z,1.03
2019-03-17T09:03:17.148Z,0.70
2019-03-17T09:05:48.953Z,0.80
2019-03-17T09:08:20.729Z,1.10
2019-03-17T09:10:52.469Z,0.88
2019-03-17T09:13:24.313Z,0.90
2019-03-17T09:15:56.058Z,1.00
2019-03-17T09:18:28.281Z,1.10
2019-03-17T09:21:01.223Z,0.90
2019-03-17T09:23:33.368Z,1.00
2019-03-17T09:26:06.135Z,0.90
2019-03-17T09:28:37.904Z,1.23
2019-03-17T09:31:09.718Z,0.77
2019-03-17T09:33:41.543Z,1.17
2019-03-17T09:36:13.366Z,1.80
2019-03-17T09:38:47.510Z,1.00
2019-03-17T09:41:18.647Z,1.37
2019-03-17T09:43:50.547Z,1.30
2019-03-17T09:46:22.416Z,1.13
2019-03-17T09:48:54.601Z,1.00
2019-03-17T09:51:26.348Z,1.37
2019-03-17T09:53:58.361Z,0.80
2019-03-17T09:56:30.267Z,0.70
2019-03-17T09:59:02.002Z,0.60
2019-03-17T10:01:33.883Z,0.50
2019-03-17T10:04:05.789Z,0.90
2019-03-17T10:06:37.678Z,0.63
2019-03-17T10:09:09.881Z,0.90
2019-03-17T10:11:41.772Z,1.37
2019-03-17T10:14:13.692Z,0.87
2019-03-17T10:16:45.514Z,0.87
2019-03-17T10:19:17.272Z,2.17
2019-03-17T10:21:49.030Z,1.10
2019-03-17T10:24:21.234Z,1.07
2019-03-17T10:26:52.969Z,1.00
2019-03-17T10:29:25.158Z,1.40
2019-03-17T10:31:57.287Z,1.00
2019-03-17T10:34:29.411Z,1.37
2019-03-17T10:37:01.229Z,1.30
2019-03-17T10:39:33.056Z,1.17
2019-03-17T10:42:04.945Z,1.07
2019-03-17T10:44:37.051Z,1.33
2019-03-17T10:47:08.785Z,1.40
2019-03-17T10:49:40.586Z,1.27
2019-03-17T10:52:12.482Z,0.90
2019-03-17T10:54:44.238Z,1.20
2019-03-17T10:57:15.982Z,2.60
2019-03-17T10:59:48.124Z,0.87
2019-03-17T11:02:19.951Z,1.30
2019-03-17T11:04:51.776Z,1.43
2019-03-17T11:07:23.680Z,1.43
2019-03-17T11:09:55.490Z,1.40
2019-03-17T11:12:27.434Z,1.50
2019-03-17T11:14:59.185Z,1.63
2019-03-17T11:17:31.209Z,1.30
2019-03-17T11:20:03.054Z,1.30
2019-03-17T11:22:35.441Z,1.40
2019-03-17T11:25:08.034Z,1.70
2019-03-17T11:27:39.832Z,0.93
2019-03-17T11:30:13.278Z,2.00
2019-03-17T11:32:45.249Z,0.87
2019-03-17T11:35:17.142Z,1.17
2019-03-17T11:37:49.097Z,1.10
2019-03-17T11:40:22.072Z,1.20
2019-03-17T11:42:53.956Z,1.37
2019-03-17T11:45:25.813Z,1.27
2019-03-17T11:47:57.716Z,1.83
2019-03-17T11:50:29.682Z,1.00
2019-03-17T11:53:01.580Z,1.10
2019-03-17T11:55:33.844Z,1.10
2019-03-17T11:58:05.695Z,1.30
2019-03-17T12:00:37.448Z,1.70
2019-03-17T12:03:09.600Z,1.20
2019-03-17T12:05:41.506Z,1.43
2019-03-17T12:08:13.478Z,2.20
2019-03-17T12:10:45.413Z,1.77
2019-03-17T12:13:17.613Z,1.90
2019-03-17T12:15:49.433Z,1.97
2019-03-17T12:18:21.628Z,1.83
2019-03-17T12:20:53.452Z,1.20
2019-03-17T12:23:25.283Z,1.87
2019-03-17T12:25:57.426Z,1.80
2019-03-17T12:28:29.397Z,1.70
2019-03-17T12:31:02.093Z,1.70
2019-03-17T12:33:34.514Z,1.50
2019-03-17T12:36:07.384Z,1.93
2019-03-17T12:38:39.134Z,2.07
2019-03-17T12:41:11.850Z,2.17
2019-03-17T12:43:43.674Z,2.20
2019-03-17T12:46:15.426Z,2.47
2019-03-17T12:48:47.247Z,1.65
2019-03-17T12:51:19.317Z,1.40
2019-03-17T12:53:51.366Z,1.83
2019-03-17T12:56:23.200Z,1.72
2019-03-17T12:58:55.361Z,2.03
2019-03-17T13:01:27.119Z,2.62
2019-03-17T13:03:58.897Z,1.93
2019-03-17T13:06:30.664Z,1.70
2019-03-17T13:09:02.422Z,1.97
2019-03-17T13:11:34.198Z,1.70
2019-03-17T13:14:07.003Z,1.70
2019-03-17T13:16:39.114Z,1.60
2019-03-17T13:19:11.448Z,1.30
2019-03-17T13:21:43.220Z,1.43
2019-03-17T13:24:15.068Z,1.03
2019-03-17T13:26:47.234Z,2.03
2019-03-17T13:29:18.982Z,1.50
2019-03-17T13:31:50.891Z,2.70
2019-03-17T13:34:22.636Z,2.00
2019-03-17T13:36:54.408Z,1.40
2019-03-17T13:39:26.535Z,2.50
2019-03-17T13:41:58.595Z,2.20
2019-03-17T13:44:30.511Z,2.13
2019-03-17T13:47:02.359Z,2.50
2019-03-17T13:49:34.110Z,2.07
2019-03-17T13:52:06.360Z,1.87
2019-03-17T13:54:38.585Z,1.33
2019-03-17T13:57:11.270Z,1.50
2019-03-17T13:59:43.142Z,1.37
2019-03-17T14:02:14.975Z,1.60
2019-03-17T14:04:46.928Z,1.53
2019-03-17T14:07:18.784Z,1.30
2019-03-17T14:09:50.605Z,1.03
2019-03-17T14:12:22.436Z,0.82
2019-03-17T14:14:54.210Z,0.70
2019-03-17T14:17:25.978Z,0.80
2019-03-17T14:19:57.980Z,0.67
2019-03-17T14:22:29.809Z,0.62
2019-03-17T14:25:01.648Z,0.60
2019-03-17T14:27:33.891Z,0.60
2019-03-17T14:30:06.221Z,0.63
2019-03-17T14:32:38.063Z,1.00
2019-03-17T14:35:10.139Z,0.73
2019-03-17T14:37:41.975Z,0.43
2019-03-17T14:40:14.562Z,0.50
2019-03-17T14:42:47.926Z,0.80
2019-03-17T14:45:19.824Z,0.60
2019-03-17T14:47:51.800Z,0.30
2019-03-17T14:50:23.769Z,0.50
2019-03-17T14:52:55.620Z,0.57
2019-03-17T14:55:27.385Z,0.60
2019-03-17T14:58:00.185Z,0.53
2019-03-17T15:00:32.282Z,0.77
2019-03-17T15:03:04.158Z,0.47
2019-03-17T15:05:35.932Z,0.67
2019-03-17T15:08:07.766Z,0.30
2019-03-17T15:10:39.618Z,0.80
2019-03-17T15:13:11.462Z,0.70
2019-03-17T15:15:43.690Z,0.50
2019-03-17T15:18:17.072Z,0.60
2019-03-17T15:20:48.888Z,0.50
2019-03-17T15:23:20.748Z,0.80
2019-03-17T15:25:52.554Z,0.67
2019-03-17T15:28:24.321Z,0.88
2019-03-17T15:31:10.195Z,0.40
2019-03-17T15:33:30.012Z,0.70
2019-03-17T15:36:01.765Z,0.60
2019-03-17T15:38:33.513Z,1.10
2019-03-17T15:41:17.645Z,1.40
2019-03-17T15:43:39.391Z,1.57
2019-03-17T15:46:12.071Z,2.07
2019-03-17T15:48:43.964Z,1.37
2019-03-17T15:51:20.574Z,1.00
2019-03-17T15:53:49.328Z,0.77
2019-03-17T15:56:21.558Z,0.87
2019-03-17T15:58:54.679Z,1.23
2019-03-17T16:01:26.787Z,0.60
2019-03-17T16:03:58.652Z,0.50
2019-03-17T16:06:30.390Z,1.00
2019-03-17T16:09:02.904Z,1.00
2019-03-17T16:11:35.262Z,0.80
2019-03-17T16:14:07.187Z,0.90
2019-03-17T16:16:39.007Z,0.93
2019-03-17T16:19:11.910Z,1.00
2019-03-17T16:21:43.751Z,1.10
2019-03-17T16:24:15.644Z,1.07
2019-03-17T16:26:47.725Z,2.33
2019-03-17T16:29:19.666Z,1.40
2019-03-17T16:31:51.567Z,1.67
2019-03-17T16:34:23.309Z,0.93
2019-03-17T16:36:55.352Z,1.90
2019-03-17T16:39:27.168Z,2.13
2019-03-17T16:41:59.215Z,1.50
2019-03-17T16:44:31.046Z,1.40
2019-03-17T16:47:03.517Z,1.40
2019-03-17T16:49:35.275Z,0.83
2019-03-17T16:52:07.194Z,1.33
2019-03-17T16:54:58.399Z,0.97
2019-03-17T16:57:30.191Z,1.50
2019-03-17T17:00:02.072Z,1.60
2019-03-17T17:02:35.064Z,1.40
2019-03-17T17:05:07.768Z,1.40
2019-03-17T17:07:39.753Z,3.27
2019-03-17T17:10:14.765Z,1.20
2019-03-17T17:12:47.390Z,3.30
2019-03-17T17:15:22.165Z,1.62
2019-03-17T17:17:54.702Z,1.20
2019-03-17T17:20:27.879Z,1.43
2019-03-17T17:22:59.856Z,1.60
2019-03-17T17:25:32.021Z,2.17
2019-03-17T17:28:04.011Z,1.63
2019-03-17T17:30:36.751Z,13.73
2019-03-17T17:33:08.597Z,3.70
2019-03-17T17:35:40.430Z,1.20
2019-03-17T17:38:12.320Z,1.50
2019-03-17T17:40:44.067Z,1.50
2019-03-17T17:43:15.826Z,2.03
2019-03-17T17:45:47.728Z,1.57
2019-03-17T17:48:19.623Z,2.42
2019-03-17T17:50:51.637Z,2.10
2019-03-17T17:53:23.721Z,4.13
2019-03-17T17:55:55.707Z,2.27
2019-03-17T17:58:27.803Z,1.90
2019-03-17T18:00:59.638Z,1.90
2019-03-17T18:03:31.451Z,2.80
2019-03-17T18:06:03.393Z,1.50
2019-03-17T18:08:35.366Z,2.50
2019-03-17T18:11:07.712Z,2.10
2019-03-17T18:13:39.501Z,1.70
2019-03-17T18:16:11.832Z,1.97
2019-03-17T18:18:43.888Z,1.77
2019-03-17T18:21:15.664Z,1.30
2019-03-17T18:23:47.655Z,1.60
2019-03-17T18:26:20.157Z,1.87
2019-03-17T18:28:52.043Z,1.10
2019-03-17T18:31:26.174Z,1.65
2019-03-17T18:33:58.120Z,2.57
2019-03-17T18:36:30.325Z,1.60
2019-03-17T18:39:02.681Z,1.40
2019-03-17T18:41:35.099Z,1.73
2019-03-17T18:44:07.081Z,1.73
2019-03-17T18:46:39.027Z,1.03
2019-03-17T18:49:12.666Z,1.40
2019-03-17T18:51:44.550Z,1.17
2019-03-17T18:54:16.641Z,0.97
2019-03-17T18:56:48.481Z,1.00
2019-03-17T18:59:20.494Z,1.42
2019-03-17T19:01:52.322Z,1.13
2019-03-17T19:04:24.689Z,1.40
2019-03-17T19:06:57.404Z,1.27
2019-03-17T19:09:29.215Z,1.75
2019-03-17T19:12:01.301Z,1.17
2019-03-17T19:14:33.195Z,1.60
2019-03-17T19:17:05.089Z,1.07
2019-03-17T19:19:37.112Z,1.13
2019-03-17T19:22:08.858Z,0.93
2019-03-17T19:24:40.667Z,1.00
2019-03-17T19:27:12.607Z,1.10
2019-03-17T19:29:44.415Z,1.03
2019-03-17T19:32:16.244Z,1.17
2019-03-17T19:34:48.339Z,1.37
2019-03-17T19:37:20.167Z,1.30
2019-03-17T19:39:51.909Z,1.43
2019-03-17T19:42:23.665Z,2.50
2019-03-17T19:44:55.433Z,2.70
2019-03-17T19:47:27.189Z,1.67
2019-03-17T19:49:59.087Z,1.20
2019-03-17T19:52:30.998Z,1.23
2019-03-17T19:55:02.897Z,2.30
2019-03-17T19:57:34.710Z,1.97
2019-03-17T20:00:07.781Z,1.70
2019-03-17T20:02:39.614Z,1.50
2019-03-17T20:05:11.571Z,0.93
2019-03-17T20:07:43.499Z,1.20
2019-03-17T20:10:19.229Z,1.50
2019-03-17T20:12:51.320Z,1.22
2019-03-17T20:15:23.156Z,1.40
2019-03-17T20:17:55.292Z,1.40
2019-03-17T20:20:27.408Z,1.40
2019-03-17T20:22:59.244Z,1.57
2019-03-17T20:25:31.059Z,1.73
2019-03-17T20:28:02.855Z,1.40
2019-03-17T20:30:34.661Z,1.50
2019-03-17T20:33:06.551Z,1.23
2019-03-17T20:35:38.660Z,1.67
2019-03-17T20:38:11.315Z,1.50
2019-03-17T20:40:43.223Z,1.53
2019-03-17T20:43:28.962Z,1.53
2019-03-17T20:45:48.580Z,1.07
2019-03-17T20:48:20.522Z,1.30
2019-03-17T20:50:52.919Z,1.27
2019-03-17T20:53:24.742Z,1.00
2019-03-17T20:55:56.827Z,0.90
2019-03-17T20:58:28.848Z,1.10
2019-03-17T21:01:00.682Z,1.33
2019-03-17T21:03:32.514Z,0.97
2019-03-17T21:06:04.426Z,1.33
2019-03-17T21:08:36.411Z,0.77
2019-03-17T21:11:08.303Z,1.57
2019-03-17T21:13:46.748Z,1.00
2019-03-17T21:16:13.758Z,1.00
2019-03-17T21:18:45.521Z,0.90
2019-03-17T21:21:17.668Z,1.10
2019-03-17T21:23:49.423Z,1.20
2019-03-17T21:26:21.158Z,0.98
2019-03-17T21:28:53.676Z,1.00
2019-03-17T21:31:25.424Z,0.90
2019-03-17T21:33:57.173Z,0.90
2019-03-17T21:36:28.999Z,1.15
2019-03-17T21:39:00.842Z,0.70
2019-03-17T21:41:33.506Z,1.17
2019-03-17T21:44:05.570Z,1.00
2019-03-17T21:46:37.893Z,1.47
2019-03-17T21:49:09.779Z,1.10
2019-03-17T21:51:41.519Z,1.20
2019-03-17T21:54:13.348Z,0.90
2019-03-17T21:56:45.085Z,0.67
2019-03-17T21:59:17.960Z,1.00
2019-03-17T22:01:49.793Z,1.07
2019-03-17T22:04:21.545Z,1.63
2019-03-17T22:06:53.698Z,1.10
2019-03-17T22:09:25.501Z,1.02
2019-03-17T22:11:57.421Z,0.72
2019-03-17T22:14:29.166Z,1.10
2019-03-17T22:17:00.976Z,0.90
2019-03-17T22:19:32.725Z,1.00
2019-03-17T22:22:04.972Z,1.23
2019-03-17T22:24:36.802Z,0.97
2019-03-17T22:27:09.023Z,0.93
2019-03-17T22:29:40.872Z,1.10
2019-03-17T22:32:12.808Z,0.90
2019-03-17T22:34:44.587Z,0.80
2019-03-17T22:37:16.411Z,1.00
2019-03-17T22:39:48.175Z,1.37
2019-03-17T22:42:20.004Z,0.77
2019-03-17T22:44:51.741Z,1.50
2019-03-17T22:47:23.825Z,1.00
2019-03-17T22:49:55.684Z,1.17
2019-03-17T22:52:27.444Z,1.87
2019-03-17T22:54:59.186Z,1.50
2019-03-17T22:57:31.033Z,1.00
2019-03-17T23:00:02.935Z,1.20
2019-03-17T23:02:36.421Z,0.97
2019-03-17T23:05:08.452Z,1.20
2019-03-17T23:07:40.266Z,1.17
2019-03-17T23:10:13.547Z,1.10
2019-03-17T23:12:46.461Z,1.30
2019-03-17T23:15:18.333Z,1.20
2019-03-17T23:17:50.228Z,1.10
2019-03-17T23:20:21.989Z,0.80
2019-03-17T23:22:54.243Z,1.37
2019-03-17T23:25:26.001Z,1.10
2019-03-17T23:27:57.824Z,0.87
2019-03-17T23:30:29.795Z,1.20
2019-03-17T23:33:01.679Z,1.10
2019-03-17T23:35:34.133Z,1.00
2019-03-17T23:38:06.096Z,0.83
2019-03-17T23:40:37.937Z,1.03
2019-03-17T23:43:11.292Z,1.10
2019-03-17T23:45:43.045Z,1.00
2019-03-17T23:48:15.199Z,0.87
2019-03-17T23:50:47.136Z,0.70
2019-03-17T23:53:18.965Z,0.83
2019-03-17T23:55:50.878Z,0.73
2019-03-17T23:58:22.617Z,1.30
